默认 日期 大小 文件数 浏览量 最新下载 xml
a 2024磁力链接相关资源由用户搜索指令自动获取,结果来源于网络,本站不存储任何资料,亦不承担任何责任,请于24小时内删除,搜索到12005个磁力,显示前4000条数据,用时25ms。
    {"Readme_Finish.txt": 959, "Mitchell A. Lower Limb and Leg Ulcer Assessment and Management 2024.pdf": 44722642}
创建时间: 2024-07-18 17:58:15 大小:42.65 MB 文件数量:2 热度:3 最近下载:2025-09-15 13:25:19
    ... [By Seregorn].mkv": 418535365, "A Salad Bowl Of Eccentrics - 06 ... [By Seregorn].mkv": 407531054, "A Salad Bowl Of Eccentrics - 08 ... [By Seregorn].mkv": 358483140, "A Salad Bowl Of Eccentrics - 09 ... [By Seregorn].mkv": 314005532, "A Salad Bowl Of Eccentrics - 10 ...
创建时间: 2024-07-18 18:19:56 大小:4.45 GB 文件数量:12 热度:9 最近下载:2025-03-27 15:30:02
    {"Cover.jpg": 51244, "00.info.m3u": 2748, "00.info.nfo": 3109, "OneHack.us.txt": 133, "12. Jamiroquai - Talullah.flac": 42577603, "22. Chris Isaak - Wicked Game.flac": 33636245, "10. Roxy Music - More Than This.flac": 29927083, "19. Depeche Mode - Policy ...
创建时间: 2024-07-18 18:57:22 大小:806.37 MB 文件数量:29 热度:8 最近下载:2025-08-04 17:25:06
    {"Code.zip": 176109, "Images.zip": 679900, "Readme.txt": 957, "Cavalcante D. TypeScript Crash Course. A Hands-On Guide...2024.pdf": 2536483}
创建时间: 2024-07-18 19:18:46 大小:3.24 MB 文件数量:4 热度:4 最近下载:2025-01-14 13:51:03
    ... River.flac": 33999223, "10 L.A. Times.flac": 57887081, "02 Raze ... (Stripped).flac": 18897642, "16 L.A. Times (Stripped).flac": 53499090, "08 ...
创建时间: 2024-07-19 08:11:01 大小:679.51 MB 文件数量:18 热度:3 最近下载:2025-01-12 13:18:02
    ... Pound - W.A.W.G. (We All We Got) (2024) 320_kbps Beats ... ": 6475302, "Tha-Dogg-Pound-W.A.W.G.-We-All-We ...
创建时间: 2024-07-19 09:19:14 大小:109.23 MB 文件数量:15 热度:3 最近下载:2025-02-24 21:41:03
    {"~Get Your Files Here !": {"B0CQHXNVFW.epub": 3750124, "Bonus Resources.txt": 386}, "Get Bonus Downloads Here.url": 183}
创建时间: 2024-07-19 09:35:35 大小:3.58 MB 文件数量:3 热度:7 最近下载:2025-09-17 18:12:08
    ... , "YTSYifyUP... (TOR).txt": 583, "A.Sacrifice.2024.1080p.WEBRip.x265.10bit.AAC5 ... .1-[YTS.MX].mp4": 1687761095, "A ... .Sacrifice.2024.1080p.WEBRip.x265.10bit.AAC5 ...
创建时间: 2024-07-19 09:42:09 大小:1.57 GB 文件数量:6 热度:2 最近下载:2025-01-22 21:34:04
    {"Descargar Películas, Series y Animes Gratis....url": 50, "Jurassic World Teoría del dinocaos.S01E10.1080p-Dual-Lat.srt": 11851, "Jurassic.World.Teoría.Del.Dinocaos.S01e10.2024.1080P-Dual-Lat.mkv": 401588963}
创建时间: 2024-07-19 09:45:45 大小:383 MB 文件数量:3 热度:2 最近下载:2025-01-11 11:07:03
    {"Furiosa A Mad Max Saga.2024.1080p WEB-DL DDP5 1 H264a.zipx": 1285057572}
创建时间: 2024-07-19 14:45:31 大小:1.2 GB 文件数量:1 热度:5 最近下载:2025-07-08 23:42:02
    ... ).jpg": 508595, "Armin van Buuren - A State Of Trance 1182 (256 ... .cue": 4655, "Armin van Buuren - A State Of Trance 1182 (256 ... .jpg": 110174, "Armin van Buuren - A State Of Trance 1182 (256 ...
创建时间: 2024-07-19 15:35:56 大小:222.9 MB 文件数量:4 热度:4 最近下载:2025-03-20 19:51:01
    {"Readme.txt": 656, "Watad A. Autoimmune Disorders. Adjuvants and Other Risk Factors...2024.pdf": 22929754}
创建时间: 2024-07-19 15:42:35 大小:21.87 MB 文件数量:2 热度:5 最近下载:2025-03-28 06:45:02
    {"EXPO.70.A.Girls.Dream.2024.1080p.HamiVideo.WEB-DL.AAC2. ...
创建时间: 2024-07-19 15:46:45 大小:5.41 GB 文件数量:4 热度:7 最近下载:2025-10-04 12:42:03
    ... Omen III (new Saytriz version) 2024.mp3": 3618127, "11.Sylwia Grzeszczak ... fkp - Party tańcuj mała (spacedj Mush EDIT ).mp3": ... up Ritmo (spacedj Mush EDIT) (2024).mp3": 9988885, "16.Timbaland ... - Najebmy Się (NERXON BLEND) 2024.mp3": 5206457, "3.Deemz, bambi ...
创建时间: 2024-07-19 15:53:19 大小:225.24 MB 文件数量:30 热度:5 最近下载:2025-04-16 08:13:02
    ... ": 4353229, "03. Help, I’m A RockTransylvania Boogie.mp3": 20456164}, "CD2 ...
创建时间: 2024-07-19 15:54:37 大小:413.26 MB 文件数量:33 热度:7 最近下载:2025-05-23 11:42:02
    ... .flac": 16785621, "07 - Lost in a Dream.flac": 20306525, "06 - Some ...
创建时间: 2024-07-19 16:33:33 大小:212.78 MB 文件数量:14 热度:3 最近下载:2025-02-24 13:53:02
    {"Readme.txt": 654, "Benallou A. Heat Exchangers. Design and Sizing Algorithms Vol 6 2024.pdf": 18874986}
创建时间: 2024-07-19 16:40:37 大小:18 MB 文件数量:2 热度:5 最近下载:2025-02-03 11:43:04
    {"A Quiet Place Day One 2024 1080p TELESYNC x264 COLLECTiVEz.arj": 1218652270}
创建时间: 2024-07-19 17:17:37 大小:1.13 GB 文件数量:1 热度:5 最近下载:2025-02-04 02:52:03
    {"Descargar Películas, Series y Animes Gratis....url": 50, "La.Fiesta.De.Las.Salchichas.Comidatopía.S01e06.2024.1080P-Dual-Lat.mkv": 380257678, "La.fiesta.de.las.salchichas.Comidatopía.S01E06.2024.1080p-Dual-Lat_Subtitles02.SPA.srt": 28189}
创建时间: 2024-07-19 17:44:52 大小:362.67 MB 文件数量:3 热度:2 最近下载:2025-02-22 07:52:03
    {"A Quiet Place Day One 2024 1080p TELESYNC x264 COLLECTiVEa.zipx": 1212884181}
创建时间: 2024-07-19 18:42:52 大小:1.13 GB 文件数量:1 热度:4 最近下载:2025-02-19 07:58:02